LFPM 271530Z AUTO 29008KT 250V320 9999 FEW041 OVC096 17/10 Q1018

Les locaux du Club
   
  L'Entrée du club Batiment 50  
   
  L'accueil et la zone opérations  
   
  La zone opérations  
   
  La zone Briefing  
   
  Le Club House  
   
  La parking avions et le hangard  
 

Liens externes